createdAt,value
2022-11-05T00:01:22.712Z,100089.00
2022-11-05T00:04:07.867Z,100101.63
2022-11-05T00:06:54.141Z,100096.03
2022-11-05T00:09:31.054Z,100098.06
2022-11-05T00:12:21.789Z,100099.91
2022-11-05T00:15:11.628Z,100094.41
2022-11-05T00:17:39.782Z,100100.88
2022-11-05T00:20:13.651Z,100095.28
2022-11-05T00:22:58.980Z,100102.00
2022-11-05T00:25:26.407Z,100094.88
2022-11-05T00:27:54.089Z,100094.78
2022-11-05T00:30:26.039Z,100101.13
2022-11-05T00:32:54.179Z,100116.94
2022-11-05T00:35:22.579Z,100112.63
2022-11-05T00:37:50.491Z,100119.97
2022-11-05T00:40:17.866Z,100116.84
2022-11-05T00:43:03.944Z,100119.41
2022-11-05T00:45:31.966Z,100122.56
2022-11-05T00:48:17.490Z,100117.91
2022-11-05T00:50:44.439Z,100115.53
2022-11-05T00:53:11.593Z,100118.28
2022-11-05T00:55:45.352Z,100118.94
2022-11-05T00:58:15.074Z,100119.03
2022-11-05T01:00:48.119Z,100126.38
2022-11-05T01:03:18.694Z,100131.28
2022-11-05T01:05:52.772Z,100133.28
2022-11-05T01:08:23.903Z,100135.66
2022-11-05T01:10:58.892Z,100143.84
2022-11-05T01:13:35.900Z,100143.69
2022-11-05T01:16:10.669Z,100128.69
2022-11-05T01:18:39.628Z,100145.56
2022-11-05T01:21:14.523Z,100139.44
2022-11-05T01:23:42.482Z,100140.69
2022-11-05T01:26:09.620Z,100150.59
2022-11-05T01:28:36.528Z,100158.00
2022-11-05T01:31:03.699Z,100151.31
2022-11-05T01:33:30.622Z,100160.34
2022-11-05T01:35:58.554Z,100160.56
2022-11-05T01:38:25.502Z,100161.00
2022-11-05T01:40:53.205Z,100167.91
2022-11-05T01:43:23.402Z,100158.66
2022-11-05T01:45:53.547Z,100166.88
2022-11-05T01:48:34.818Z,100169.34
2022-11-05T01:51:18.742Z,100163.72
2022-11-05T01:54:00.134Z,100175.59
2022-11-05T01:56:47.843Z,100171.41
2022-11-05T01:59:28.553Z,100184.00
2022-11-05T02:01:56.121Z,100180.75
2022-11-05T02:04:40.090Z,100183.50
2022-11-05T02:07:13.056Z,100178.91
2022-11-05T02:09:56.419Z,100183.00
2022-11-05T02:12:24.261Z,100185.56
2022-11-05T02:14:51.136Z,100184.06
2022-11-05T02:17:46.770Z,100184.22
2022-11-05T02:20:23.377Z,100189.69
2022-11-05T02:23:35.266Z,100187.94
2022-11-05T02:26:32.227Z,100189.13
2022-11-05T02:29:49.084Z,100196.25
2022-11-05T02:32:44.057Z,100207.31
2022-11-05T02:35:27.012Z,100206.22
2022-11-05T02:38:06.780Z,100215.47
2022-11-05T02:40:50.541Z,100206.06
2022-11-05T02:43:47.186Z,100216.13
2022-11-05T02:47:18.157Z,100209.41
2022-11-05T02:50:01.095Z,100216.81
2022-11-05T02:52:50.459Z,100219.59
2022-11-05T02:55:30.369Z,100218.25
2022-11-05T02:57:59.758Z,100209.63
2022-11-05T03:00:52.883Z,100209.47
2022-11-05T03:03:24.868Z,100210.91
2022-11-05T03:06:22.216Z,100214.69
2022-11-05T03:09:27.169Z,100227.31
2022-11-05T03:12:16.269Z,100223.13
2022-11-05T03:15:22.465Z,100229.41
2022-11-05T03:18:50.312Z,100232.41
2022-11-05T03:21:52.451Z,100228.31
2022-11-05T03:24:31.914Z,100236.91
2022-11-05T03:27:13.334Z,100235.97
2022-11-05T03:29:47.670Z,100236.22
2022-11-05T03:32:17.545Z,100242.88
2022-11-05T03:34:53.240Z,100243.78
2022-11-05T03:37:22.724Z,100248.16
2022-11-05T03:39:58.024Z,100256.94
2022-11-05T03:42:30.936Z,100257.22
2022-11-05T03:45:04.994Z,100252.09
2022-11-05T03:47:41.159Z,100254.69
2022-11-05T03:50:25.907Z,100255.03
2022-11-05T03:52:59.542Z,100269.44
2022-11-05T03:55:47.380Z,100254.00
2022-11-05T03:58:16.785Z,100270.78
2022-11-05T04:00:45.776Z,100278.34
2022-11-05T04:03:13.023Z,100284.75
2022-11-05T04:05:40.317Z,100289.13
2022-11-05T04:08:28.404Z,100281.47
2022-11-05T04:11:18.871Z,100285.84
2022-11-05T04:13:53.092Z,100290.13
2022-11-05T04:16:39.516Z,100293.13
2022-11-05T04:19:06.375Z,100298.97
2022-11-05T04:21:53.647Z,100300.84
2022-11-05T04:24:22.581Z,100306.50
2022-11-05T04:26:49.452Z,100309.50
2022-11-05T04:29:34.622Z,100313.63
2022-11-05T04:32:01.485Z,100310.06
2022-11-05T04:34:28.464Z,100309.38
2022-11-05T04:36:55.372Z,100321.28
2022-11-05T04:39:24.307Z,100322.63
2022-11-05T04:41:51.302Z,100324.72
2022-11-05T04:44:18.156Z,100316.34
2022-11-05T04:46:45.036Z,100324.25
2022-11-05T04:49:11.979Z,100316.91
2022-11-05T04:51:40.035Z,100321.41
2022-11-05T04:54:06.997Z,100323.19
2022-11-05T04:56:34.098Z,100319.38
2022-11-05T04:59:05.096Z,100317.75
2022-11-05T05:01:32.106Z,100322.78
2022-11-05T05:03:59.098Z,100332.91
2022-11-05T05:06:26.215Z,100332.22
2022-11-05T05:08:53.190Z,100337.16
2022-11-05T05:11:21.950Z,100344.38
2022-11-05T05:13:50.123Z,100343.41
2022-11-05T05:16:24.200Z,100338.78
2022-11-05T05:18:52.329Z,100344.78
2022-11-05T05:21:40.561Z,100350.81
2022-11-05T05:24:16.635Z,100345.31
2022-11-05T05:26:46.978Z,100350.41
2022-11-05T05:29:15.030Z,100353.69
2022-11-05T05:31:42.368Z,100363.78
2022-11-05T05:34:13.098Z,100361.19
2022-11-05T05:36:40.372Z,100364.75
2022-11-05T05:39:11.530Z,100362.28
2022-11-05T05:41:39.587Z,100378.44
2022-11-05T05:44:08.633Z,100384.44
2022-11-05T05:46:36.607Z,100392.63
2022-11-05T05:49:06.659Z,100389.13
2022-11-05T05:51:38.156Z,100392.38
2022-11-05T05:54:05.273Z,100399.75
2022-11-05T05:56:32.138Z,100403.31
2022-11-05T05:59:05.067Z,100413.19
2022-11-05T06:01:33.050Z,100406.47
2022-11-05T06:04:00.173Z,100419.19
2022-11-05T06:06:27.178Z,100418.78
2022-11-05T06:08:56.182Z,100421.91
2022-11-05T06:11:25.435Z,100424.09
2022-11-05T06:13:55.615Z,100427.38
2022-11-05T06:16:27.680Z,100435.91
2022-11-05T06:18:55.646Z,100440.28
2022-11-05T06:21:22.495Z,100452.16
2022-11-05T06:23:49.818Z,100452.84
2022-11-05T06:26:18.631Z,100450.63
2022-11-05T06:28:45.963Z,100464.59
2022-11-05T06:31:15.156Z,100466.47
2022-11-05T06:33:43.145Z,100473.34
2022-11-05T06:36:16.489Z,100470.59
2022-11-05T06:38:44.444Z,100467.09
2022-11-05T06:41:15.623Z,100464.34
2022-11-05T06:43:48.815Z,100467.81
2022-11-05T06:46:15.846Z,100479.34
2022-11-05T06:48:42.784Z,100468.81
2022-11-05T06:51:10.206Z,100468.16
2022-11-05T06:53:37.354Z,100471.00
2022-11-05T06:56:06.527Z,100487.53
2022-11-05T06:58:34.217Z,100483.03
2022-11-05T07:01:10.221Z,100488.78
2022-11-05T07:03:38.263Z,100491.66
2022-11-05T07:06:07.643Z,100490.28
2022-11-05T07:08:37.591Z,100495.22
2022-11-05T07:11:05.670Z,100500.81
2022-11-05T07:13:33.572Z,100510.03
2022-11-05T07:16:05.678Z,100515.00
2022-11-05T07:18:32.575Z,100515.00
2022-11-05T07:21:00.770Z,100524.28
2022-11-05T07:23:27.720Z,100529.84
2022-11-05T07:25:54.688Z,100530.22
2022-11-05T07:28:21.572Z,100539.34
2022-11-05T07:30:48.451Z,100530.56
2022-11-05T07:33:15.508Z,100533.28
2022-11-05T07:35:42.518Z,100545.22
2022-11-05T07:38:10.034Z,100550.78
2022-11-05T07:40:38.984Z,100550.78
2022-11-05T07:43:05.931Z,100560.34
2022-11-05T07:45:36.832Z,100552.56
2022-11-05T07:48:06.225Z,100557.69
2022-11-05T07:50:36.583Z,100550.69
2022-11-05T07:53:13.946Z,100558.59
2022-11-05T07:55:47.341Z,100555.22
2022-11-05T07:58:18.570Z,100558.75
2022-11-05T08:00:45.778Z,100569.47
2022-11-05T08:03:17.072Z,100574.38
2022-11-05T08:05:47.617Z,100575.63
2022-11-05T08:08:17.638Z,100579.31
2022-11-05T08:10:44.996Z,100579.56
2022-11-05T08:13:13.540Z,100586.69
2022-11-05T08:15:42.596Z,100592.84
2022-11-05T08:18:17.007Z,100597.09
2022-11-05T08:20:46.388Z,100590.53
2022-11-05T08:23:14.240Z,100596.16
2022-11-05T08:25:42.046Z,100593.81
2022-11-05T08:28:12.841Z,100600.94
2022-11-05T08:30:41.905Z,100597.81
2022-11-05T08:33:12.742Z,100589.72
2022-11-05T08:35:40.791Z,100593.81
2022-11-05T08:38:13.543Z,100601.22
2022-11-05T08:40:41.894Z,100602.16
2022-11-05T08:43:13.456Z,100603.28
2022-11-05T08:45:42.335Z,100603.41
2022-11-05T08:48:14.851Z,100599.44
2022-11-05T08:50:43.106Z,100611.91
2022-11-05T08:53:17.372Z,100601.19
2022-11-05T08:55:59.636Z,100601.44
2022-11-05T08:58:26.662Z,100593.75
2022-11-05T09:00:53.666Z,100596.72
2022-11-05T09:03:20.790Z,100588.47
2022-11-05T09:05:47.840Z,100602.25
2022-11-05T09:08:17.741Z,100601.44
2022-11-05T09:10:46.976Z,100609.16
2022-11-05T09:13:18.665Z,100620.97
2022-11-05T09:15:48.728Z,100620.78
2022-11-05T09:18:17.021Z,100616.78
2022-11-05T09:20:44.975Z,100618.81
2022-11-05T09:23:19.156Z,100614.69
2022-11-05T09:25:50.130Z,100613.91
2022-11-05T09:28:20.259Z,100621.72
2022-11-05T09:30:52.268Z,100625.03
2022-11-05T09:33:23.983Z,100638.22
2022-11-05T09:35:53.634Z,100631.75
2022-11-05T09:38:20.819Z,100634.38
2022-11-05T09:41:38.676Z,100637.06
2022-11-05T09:44:23.946Z,100628.41
2022-11-05T09:46:54.947Z,100624.56
2022-11-05T09:49:41.516Z,100623.09
2022-11-05T09:52:30.009Z,100625.53
2022-11-05T09:54:58.157Z,100617.19
2022-11-05T09:57:59.957Z,100634.59
2022-11-05T10:00:29.545Z,100640.81
2022-11-05T10:03:06.188Z,100628.09
2022-11-05T10:05:38.412Z,100622.34
2022-11-05T10:08:22.641Z,100645.59
2022-11-05T10:11:05.194Z,100629.97
2022-11-05T10:13:47.529Z,100640.53
2022-11-05T10:16:27.802Z,100652.50
2022-11-05T10:19:07.277Z,100638.78
2022-11-05T10:22:04.426Z,100651.97
2022-11-05T10:24:22.319Z,100647.47
2022-11-05T10:26:55.078Z,100654.44
2022-11-05T10:29:34.708Z,100660.31
2022-11-05T10:32:05.717Z,100668.53
2022-11-05T10:34:37.258Z,100671.06
2022-11-05T10:37:04.498Z,100660.31
2022-11-05T10:39:35.295Z,100663.16
2022-11-05T10:42:39.118Z,100678.44
2022-11-05T10:45:24.015Z,100666.72
2022-11-05T10:48:43.309Z,100659.97
2022-11-05T10:51:11.398Z,100668.75
2022-11-05T10:53:40.556Z,100665.47
2022-11-05T10:56:37.888Z,100664.66
2022-11-05T10:59:19.930Z,100653.16
2022-11-05T11:01:47.176Z,100652.91
2022-11-05T11:04:23.722Z,100649.88
2022-11-05T11:07:00.474Z,100656.28
2022-11-05T11:09:31.315Z,100652.84
2022-11-05T11:12:24.769Z,100665.84
2022-11-05T11:15:20.766Z,100666.13
2022-11-05T11:17:48.712Z,100657.72
2022-11-05T11:20:31.392Z,100658.97
2022-11-05T11:23:17.630Z,100649.13
2022-11-05T11:26:00.721Z,100642.50
2022-11-05T11:28:44.642Z,100645.47
2022-11-05T11:31:20.590Z,100649.78
2022-11-05T11:33:51.798Z,100642.72
2022-11-05T11:36:31.137Z,100636.75
2022-11-05T11:39:04.505Z,100640.63
2022-11-05T11:41:39.553Z,100649.13
2022-11-05T11:44:18.156Z,100651.81
2022-11-05T11:46:52.695Z,100645.09
2022-11-05T11:49:51.456Z,100648.81
2022-11-05T11:52:37.375Z,100647.84
2022-11-05T11:55:10.974Z,100644.72
2022-11-05T11:57:51.989Z,100640.63
2022-11-05T12:00:23.400Z,100646.31
2022-11-05T12:03:25.646Z,100648.16
2022-11-05T12:06:19.718Z,100634.94
2022-11-05T12:09:10.694Z,100628.19
2022-11-05T12:12:05.153Z,100623.44
2022-11-05T12:14:45.167Z,100621.38
2022-11-05T12:17:16.189Z,100620.84
2022-11-05T12:20:15.106Z,100619.75
2022-11-05T12:23:14.608Z,100621.06
2022-11-05T12:26:20.225Z,100631.88
2022-11-05T12:29:43.957Z,100638.00
2022-11-05T12:32:41.759Z,100649.44
2022-11-05T12:35:48.876Z,100648.16
2022-11-05T12:38:46.066Z,100654.53
2022-11-05T12:42:05.992Z,100657.34
2022-11-05T12:44:59.230Z,100656.50
2022-11-05T12:47:47.552Z,100661.22
2022-11-05T12:50:53.281Z,100665.13
2022-11-05T12:54:03.484Z,100666.56
2022-11-05T12:56:43.608Z,100685.38
2022-11-05T12:59:36.743Z,100684.03
2022-11-05T13:02:10.845Z,100674.53
2022-11-05T13:04:53.326Z,100689.94
2022-11-05T13:07:30.491Z,100682.25
2022-11-05T13:10:04.169Z,100689.66
2022-11-05T13:12:37.585Z,100673.47
2022-11-05T13:15:28.255Z,100683.53
2022-11-05T13:18:14.412Z,100687.59
2022-11-05T13:20:48.615Z,100681.81
2022-11-05T13:24:00.093Z,100679.38
2022-11-05T13:27:00.288Z,100683.75
2022-11-05T13:29:45.530Z,100679.38
2022-11-05T13:32:29.956Z,100671.84
2022-11-05T13:35:01.156Z,100678.56
2022-11-05T13:37:59.964Z,100680.06
2022-11-05T13:41:25.536Z,100678.41
2022-11-05T13:44:19.861Z,100673.91
2022-11-05T13:47:17.042Z,100679.00
2022-11-05T13:49:52.811Z,100698.31
2022-11-05T13:52:54.632Z,100686.91
2022-11-05T13:56:06.077Z,100688.41
2022-11-05T13:59:16.139Z,100676.75
2022-11-05T14:02:00.555Z,100667.75
2022-11-05T14:04:45.365Z,100673.94
2022-11-05T14:07:23.290Z,100677.78
2022-11-05T14:09:58.065Z,100672.00
2022-11-05T14:12:36.783Z,100684.19
2022-11-05T14:15:17.563Z,100675.72
2022-11-05T14:18:32.851Z,100677.34
2022-11-05T14:21:02.300Z,100687.44
2022-11-05T14:23:41.249Z,100693.22
2022-11-05T14:26:19.644Z,100691.81
2022-11-05T14:28:50.099Z,100679.22
2022-11-05T14:31:19.928Z,100682.53
2022-11-05T14:34:02.813Z,100682.28
2022-11-05T14:36:33.301Z,100686.94
2022-11-05T14:39:13.553Z,100674.50
2022-11-05T14:42:34.426Z,100676.81
2022-11-05T14:45:14.573Z,100674.09
2022-11-05T14:48:06.634Z,100682.59
2022-11-05T14:50:42.233Z,100679.41
2022-11-05T14:53:35.145Z,100690.53
2022-11-05T14:56:08.558Z,100687.78
2022-11-05T14:58:38.689Z,100685.84
2022-11-05T15:01:51.464Z,100682.03
2022-11-05T15:04:35.818Z,100683.28
2022-11-05T15:07:38.718Z,100687.41
2022-11-05T15:10:13.968Z,100687.94
2022-11-05T15:13:04.479Z,100682.59
2022-11-05T15:15:53.560Z,100677.63
2022-11-05T15:18:49.491Z,100683.03
2022-11-05T15:21:20.027Z,100677.66
2022-11-05T15:23:53.232Z,100688.22
2022-11-05T15:26:26.647Z,100687.53
2022-11-05T15:28:56.900Z,100680.25
2022-11-05T15:31:41.263Z,100692.47
2022-11-05T15:34:35.921Z,100707.00
2022-11-05T15:37:12.047Z,100714.34
2022-11-05T15:39:45.761Z,100723.69
2022-11-05T15:42:26.092Z,100715.19
2022-11-05T15:44:58.726Z,100708.47
2022-11-05T15:47:34.177Z,100713.53
2022-11-05T15:50:15.029Z,100707.53
2022-11-05T15:52:52.417Z,100707.94
2022-11-05T15:55:29.440Z,100705.97
2022-11-05T15:58:06.791Z,100719.56
2022-11-05T16:00:37.073Z,100713.53
2022-11-05T16:03:31.779Z,100714.88
2022-11-05T16:06:00.809Z,100720.63
2022-11-05T16:08:30.497Z,100725.72
2022-11-05T16:11:01.661Z,100718.19
2022-11-05T16:13:42.316Z,100715.31
2022-11-05T16:16:25.380Z,100713.81
2022-11-05T16:18:53.537Z,100712.16
2022-11-05T16:21:28.720Z,100704.50
2022-11-05T16:24:00.570Z,100713.50
2022-11-05T16:29:46.544Z,100726.22
2022-11-05T16:32:30.723Z,100724.16
2022-11-05T16:35:05.369Z,100721.38
2022-11-05T16:37:41.107Z,100725.22
2022-11-05T16:40:27.553Z,100720.69
2022-11-05T16:42:54.594Z,100729.94
2022-11-05T16:45:24.641Z,100733.63
2022-11-05T16:47:54.453Z,100743.19
2022-11-05T16:50:30.405Z,100746.09
2022-11-05T16:52:58.551Z,100746.47
2022-11-05T16:55:27.458Z,100758.28
2022-11-05T16:58:04.699Z,100757.09
2022-11-05T17:00:33.745Z,100757.19
2022-11-05T17:03:00.725Z,100765.75
2022-11-05T17:05:31.645Z,100750.53
2022-11-05T17:08:01.164Z,100757.78
2022-11-05T17:10:28.074Z,100765.22
2022-11-05T17:13:03.695Z,100760.34
2022-11-05T17:15:36.242Z,100765.34
2022-11-05T17:18:05.458Z,100788.75
2022-11-05T17:20:40.898Z,100798.63
2022-11-05T17:23:20.938Z,100785.81
2022-11-05T17:26:03.447Z,100778.19
2022-11-05T17:28:31.193Z,100783.56
2022-11-05T17:31:11.123Z,100791.47
2022-11-05T17:33:38.202Z,100786.41
2022-11-05T17:36:14.865Z,100787.81
2022-11-05T17:38:42.522Z,100791.91
2022-11-05T17:41:19.669Z,100793.66
2022-11-05T17:43:57.841Z,100786.78
2022-11-05T17:46:25.787Z,100792.00
2022-11-05T17:48:53.736Z,100799.31
2022-11-05T17:51:21.921Z,100802.31
2022-11-05T17:53:54.090Z,100792.91
2022-11-05T17:56:32.477Z,100801.22
2022-11-05T17:59:01.882Z,100810.22
2022-11-05T18:01:35.715Z,100811.41
2022-11-05T18:04:08.711Z,100818.50
2022-11-05T18:06:40.503Z,100813.91
2022-11-05T18:09:09.397Z,100807.59
2022-11-05T18:11:37.876Z,100803.47
2022-11-05T18:14:05.469Z,100803.13
2022-11-05T18:16:32.854Z,100813.63
2022-11-05T18:19:01.444Z,100822.09
2022-11-05T18:21:39.448Z,100816.91
2022-11-05T18:24:07.595Z,100821.50
2022-11-05T18:26:35.257Z,100825.72
2022-11-05T18:29:04.558Z,100817.38
2022-11-05T18:31:31.701Z,100816.44
2022-11-05T18:33:59.892Z,100818.09
2022-11-05T18:36:31.414Z,100813.16
2022-11-05T18:39:02.308Z,100809.00
2022-11-05T18:41:30.289Z,100812.91
2022-11-05T18:44:03.068Z,100808.53
2022-11-05T18:46:57.121Z,100812.53
2022-11-05T18:49:23.971Z,100815.38
2022-11-05T18:51:50.969Z,100819.50
2022-11-05T18:54:20.334Z,100819.03
2022-11-05T18:56:47.243Z,100810.88
2022-11-05T19:02:06.069Z,100811.13
2022-11-05T19:04:36.595Z,100807.13
2022-11-05T19:07:13.680Z,100810.44
2022-11-05T19:09:40.937Z,100815.88
2022-11-05T19:12:08.467Z,100823.28
2022-11-05T19:14:36.226Z,100820.56
2022-11-05T19:17:04.266Z,100819.50
2022-11-05T19:19:46.473Z,100815.03
2022-11-05T19:22:15.496Z,100814.22
2022-11-05T19:24:48.649Z,100811.75
2022-11-05T19:27:21.878Z,100819.41
2022-11-05T19:29:51.598Z,100813.72
2022-11-05T19:32:18.473Z,100813.38
2022-11-05T19:34:45.377Z,100817.25
2022-11-05T19:37:12.356Z,100811.13
2022-11-05T19:39:40.451Z,100809.13
2022-11-05T19:42:07.423Z,100814.13
2022-11-05T19:44:34.331Z,100812.25
2022-11-05T19:47:01.209Z,100817.03
2022-11-05T19:49:30.734Z,100822.44
2022-11-05T19:51:58.662Z,100824.34
2022-11-05T19:54:28.652Z,100821.56
2022-11-05T19:57:01.927Z,100820.72
2022-11-05T19:59:35.034Z,100819.91
2022-11-05T20:02:03.114Z,100817.56
2022-11-05T20:04:37.317Z,100819.41
2022-11-05T20:07:04.223Z,100819.53
2022-11-05T20:09:31.136Z,100818.78
2022-11-05T20:11:58.109Z,100823.44
2022-11-05T20:14:26.454Z,100824.13
2022-11-05T20:16:53.734Z,100820.69
2022-11-05T20:19:22.621Z,100823.13
2022-11-05T20:21:49.978Z,100821.50
2022-11-05T20:24:24.141Z,100826.78
2022-11-05T20:26:53.586Z,100821.44
2022-11-05T20:29:21.185Z,100817.03
2022-11-05T20:31:48.560Z,100816.13
2022-11-05T20:34:18.654Z,100812.84
2022-11-05T20:36:49.954Z,100815.09
2022-11-05T20:39:23.469Z,100808.72
2022-11-05T20:41:50.401Z,100816.78
2022-11-05T20:44:22.811Z,100821.66
2022-11-05T20:46:49.657Z,100825.69
2022-11-05T20:49:20.093Z,100825.00
2022-11-05T20:51:50.005Z,100815.91
2022-11-05T20:54:17.006Z,100821.88
2022-11-05T20:56:44.145Z,100820.44
2022-11-05T20:59:11.146Z,100828.22
2022-11-05T21:01:39.453Z,100829.38
2022-11-05T21:04:06.651Z,100830.19
2022-11-05T21:06:34.980Z,100824.97
2022-11-05T21:09:03.533Z,100824.28
2022-11-05T21:11:53.979Z,100831.69
2022-11-05T21:14:21.098Z,100832.63
2022-11-05T21:16:47.990Z,100832.44
2022-11-05T21:19:25.080Z,100831.19
2022-11-05T21:21:52.118Z,100833.06
2022-11-05T21:24:31.121Z,100833.66
2022-11-05T21:27:03.165Z,100834.78
2022-11-05T21:29:30.048Z,100817.59
2022-11-05T21:31:56.908Z,100818.13
2022-11-05T21:34:24.274Z,100823.03
2022-11-05T21:36:51.622Z,100816.31
2022-11-05T21:39:22.639Z,100824.34
2022-11-05T21:41:52.653Z,100827.38
2022-11-05T21:44:20.656Z,100822.97
2022-11-05T21:46:47.689Z,100816.84
2022-11-05T21:49:14.634Z,100818.56
2022-11-05T21:52:03.316Z,100820.00
2022-11-05T21:54:48.637Z,100815.59
2022-11-05T21:57:36.221Z,100810.72
2022-11-05T22:00:09.912Z,100812.91
2022-11-05T22:02:37.506Z,100819.81
2022-11-05T22:05:06.580Z,100823.97
2022-11-05T22:07:39.245Z,100816.66
2022-11-05T22:10:24.727Z,100816.19
2022-11-05T22:12:52.637Z,100822.22
2022-11-05T22:15:19.646Z,100815.47
2022-11-05T22:17:50.076Z,100827.69
2022-11-05T22:20:17.441Z,100818.91
2022-11-05T22:22:45.026Z,100824.75
2022-11-05T22:25:13.346Z,100827.06
2022-11-05T22:27:40.537Z,100813.72
2022-11-05T22:30:08.293Z,100818.16
2022-11-05T22:32:35.197Z,100818.56
2022-11-05T22:35:02.182Z,100813.50
2022-11-05T22:37:29.367Z,100806.56
2022-11-05T22:39:58.368Z,100798.16
2022-11-05T22:42:25.305Z,100800.88
2022-11-05T22:44:52.271Z,100816.34
2022-11-05T22:47:19.390Z,100816.81
2022-11-05T22:49:49.300Z,100814.91
2022-11-05T22:52:16.167Z,100820.72
2022-11-05T22:54:43.041Z,100819.44
2022-11-05T22:57:10.061Z,100812.16
2022-11-05T22:59:37.169Z,100812.63
2022-11-05T23:02:09.419Z,100803.47
2022-11-05T23:04:37.475Z,100807.81
2022-11-05T23:07:27.253Z,100798.16
2022-11-05T23:10:13.638Z,100790.28
2022-11-05T23:12:43.080Z,100787.84
2022-11-05T23:15:31.114Z,100784.53
2022-11-05T23:18:16.667Z,100783.38
2022-11-05T23:21:02.090Z,100776.69
2022-11-05T23:23:47.494Z,100777.31
2022-11-05T23:26:32.724Z,100785.19
2022-11-05T23:28:59.661Z,100782.00
2022-11-05T23:31:44.916Z,100779.41
2022-11-05T23:34:11.975Z,100781.72
2022-11-05T23:36:57.294Z,100775.50
2022-11-05T23:39:24.325Z,100778.50
2022-11-05T23:42:09.677Z,100774.53
2022-11-05T23:44:55.188Z,100777.97
2022-11-05T23:47:44.257Z,100784.97
2022-11-05T23:50:12.514Z,100788.09
2022-11-05T23:52:40.415Z,100781.56
2022-11-05T23:55:07.925Z,100784.38
2022-11-05T23:57:35.025Z,100785.72
